Time;durP1;ratioP1;P1;durP2;ratioP2;P2;SDS_P1;SDS_P2;PMS_P1;PMS_P2;Temp;Humidity;BMP_temperature;BMP_pressure;BME280_temperature;BME280_humidity;BME280_pressure;Samples;Min_cycle;Max_cycle;Signal;HPM_P1;HPM_P2
2023/08/12 00:01:47;;;;;;;5.57;2.90;;;;;;;18.09;76.75;95401.94;4991341;28;20169;-79
2023/08/12 00:04:14;;;;;;;7.65;3.50;;;;;;;18.11;77.20;95401.69;4991056;28;20188;-79
2023/08/12 00:06:41;;;;;;;4.70;3.13;;;;;;;18.04;77.95;95385.88;4991065;28;20216;-79
2023/08/12 00:09:07;;;;;;;5.75;3.33;;;;;;;18.13;77.55;95398.78;4995162;28;20169;-79
2023/08/12 00:11:33;;;;;;;6.53;3.35;;;;;;;18.13;78.03;95396.94;4993278;28;20201;-78
2023/08/12 00:13:58;;;;;;;4.45;3.05;;;;;;;18.03;77.78;95376.28;4982450;28;20181;-79
2023/08/12 00:16:23;;;;;;;4.85;3.38;;;;;;;18.14;77.24;95398.56;4994934;28;20216;-79
2023/08/12 00:18:49;;;;;;;3.65;2.75;;;;;;;18.14;77.09;95403.88;4994865;28;20624;-79
2023/08/12 00:21:14;;;;;;;4.95;3.03;;;;;;;18.07;77.12;95398.69;4993962;28;20216;-79
2023/08/12 00:23:41;;;;;;;7.53;3.40;;;;;;;18.06;76.90;95393.66;4988270;28;20575;-79
2023/08/12 00:26:08;;;;;;;4.53;2.70;;;;;;;18.05;76.74;95394.69;4989057;28;20185;-78
2023/08/12 00:28:33;;;;;;;3.60;2.70;;;;;;;18.05;76.92;95397.34;4992459;28;20654;-79
2023/08/12 00:30:59;;;;;;;3.88;2.80;;;;;;;18.02;76.70;95395.97;4987963;28;20213;-79
2023/08/12 00:33:24;;;;;;;2.95;2.42;;;;;;;18.00;76.83;95387.41;4993008;28;20166;-79
2023/08/12 00:35:50;;;;;;;3.58;2.83;;;;;;;17.99;76.85;95391.13;4994759;28;20188;-79
2023/08/12 00:38:15;;;;;;;4.40;2.97;;;;;;;17.92;76.74;95390.47;4987493;28;20185;-79
2023/08/12 00:40:40;;;;;;;4.70;3.23;;;;;;;17.83;77.46;95391.94;4993468;28;20504;-79
2023/08/12 00:43:06;;;;;;;3.65;2.83;;;;;;;17.64;77.18;95359.41;4990483;28;20188;-79
2023/08/12 00:45:32;;;;;;;3.63;2.78;;;;;;;17.84;77.21;95382.91;4994478;28;20209;-79
2023/08/12 00:47:58;;;;;;;3.08;2.78;;;;;;;17.67;77.34;95353.63;4973490;28;20181;-79
2023/08/12 00:50:23;;;;;;;3.97;3.13;;;;;;;17.75;77.16;95370.22;4988966;28;20184;-79
2023/08/12 00:52:50;;;;;;;10.52;5.90;;;;;;;17.83;77.37;95380.47;4994228;28;20207;-79
2023/08/12 00:55:17;;;;;;;5.65;4.28;;;;;;;17.78;77.12;95383.06;4973438;28;20549;-79
2023/08/12 00:57:43;;;;;;;9.90;6.63;;;;;;;17.74;76.84;95382.75;4988437;28;20251;-79
2023/08/12 01:00:09;;;;;;;14.70;9.80;;;;;;;17.71;77.01;95369.94;4985750;28;20648;-79
2023/08/12 01:02:34;;;;;;;5.28;4.13;;;;;;;17.64;76.12;95367.41;4993920;28;20427;-79
2023/08/12 01:05:00;;;;;;;6.60;4.47;;;;;;;17.57;76.28;95376.56;4978430;28;20436;-79
2023/08/12 01:07:26;;;;;;;9.00;6.07;;;;;;;17.59;76.47;95380.63;4992566;28;20280;-79
2023/08/12 01:09:52;;;;;;;8.50;5.13;;;;;;;17.67;76.64;95377.59;4991506;28;20574;-79
2023/08/12 01:12:44;;;;;;;10.20;5.57;;;;;;;17.65;76.64;95354.91;4989676;28;20190;-79
2023/08/12 01:15:24;;;;;;;6.63;3.42;;;;;;;17.70;76.02;95374.44;4988416;28;20189;-79
2023/08/12 01:17:53;;;;;;;5.10;3.88;;;;;;;17.63;76.74;95365.00;4990674;28;20185;-79
2023/08/12 01:20:24;;;;;;;3.75;3.20;;;;;;;17.66;76.61;95373.31;4980473;28;20558;-79
2023/08/12 01:22:57;;;;;;;7.32;4.40;;;;;;;17.67;77.24;95372.25;4985627;28;21212;-78
2023/08/12 01:25:24;;;;;;;4.82;3.10;;;;;;;17.66;76.92;95377.81;4976523;28;20572;-79
2023/08/12 01:27:50;;;;;;;3.28;2.90;;;;;;;17.64;77.14;95370.06;4991553;28;20204;-79
2023/08/12 01:30:16;;;;;;;4.13;3.00;;;;;;;17.68;77.01;95373.06;4990188;28;20208;-79
2023/08/12 01:32:52;;;;;;;5.82;3.03;;;;;;;17.63;76.70;95363.16;4991910;28;20740;-79
2023/08/12 01:35:33;;;;;;;28.92;16.63;;;;;;;17.50;76.96;95351.97;4993729;28;20197;-76
2023/08/12 01:37:59;;;;;;;23.02;14.73;;;;;;;17.58;76.84;95368.34;4988446;28;20187;-76
2023/08/12 01:40:28;;;;;;;15.75;11.10;;;;;;;17.55;77.05;95365.38;4987635;28;20256;-76
2023/08/12 01:42:54;;;;;;;17.40;11.63;;;;;;;17.47;77.42;95350.59;4989779;28;20176;-76
2023/08/12 01:45:19;;;;;;;35.17;21.37;;;;;;;17.40;77.67;95347.28;4987396;28;20412;-76
2023/08/12 01:47:45;;;;;;;27.27;16.52;;;;;;;17.17;77.88;95320.81;4991043;28;20487;-76
2023/08/12 01:50:10;;;;;;;21.48;12.35;;;;;;;17.44;77.49;95369.72;4984505;28;20185;-76
2023/08/12 01:52:36;;;;;;;22.35;14.20;;;;;;;17.40;77.75;95370.41;4992644;28;20224;-76
2023/08/12 01:55:01;;;;;;;34.08;20.88;;;;;;;17.34;77.53;95364.22;4993399;28;20185;-76
2023/08/12 01:57:27;;;;;;;49.65;31.48;;;;;;;17.37;77.66;95366.41;4993043;28;20560;-76
2023/08/12 01:59:52;;;;;;;24.08;14.63;;;;;;;17.25;77.96;95355.81;4989409;28;20191;-76
2023/08/12 02:02:17;;;;;;;14.55;9.88;;;;;;;17.31;77.92;95362.84;4992936;28;20315;-76
2023/08/12 02:04:44;;;;;;;15.52;10.38;;;;;;;17.31;78.05;95378.00;4986765;28;20184;-76
2023/08/12 02:07:09;;;;;;;13.50;8.53;;;;;;;17.24;78.04;95367.50;4989030;28;20489;-76
2023/08/12 02:09:35;;;;;;;14.77;9.65;;;;;;;17.19;78.24;95362.09;4990758;28;20249;-76
2023/08/12 02:12:00;;;;;;;7.50;4.72;;;;;;;17.26;78.44;95372.59;4993347;28;20564;-76
2023/08/12 02:14:25;;;;;;;7.13;5.95;;;;;;;17.25;78.29;95368.31;4992483;28;20528;-76
2023/08/12 02:16:51;;;;;;;9.75;5.05;;;;;;;17.13;78.51;95346.25;4985981;28;20224;-76
2023/08/12 02:19:16;;;;;;;5.63;4.00;;;;;;;17.24;77.83;95370.16;4980118;28;20185;-76
2023/08/12 02:21:42;;;;;;;4.85;3.17;;;;;;;17.13;77.84;95360.38;4992526;28;20416;-76
2023/08/12 02:24:08;;;;;;;4.32;2.55;;;;;;;16.95;77.52;95341.97;4990281;28;20687;-76
2023/08/12 02:26:33;;;;;;;4.97;2.92;;;;;;;17.13;78.09;95362.22;4992314;28;20260;-76
2023/08/12 02:28:59;;;;;;;4.18;3.25;;;;;;;16.85;77.53;95326.63;4986112;28;20255;-76
2023/08/12 02:31:24;;;;;;;5.70;3.20;;;;;;;17.12;77.04;95371.28;4985902;28;20291;-76
2023/08/12 02:33:50;;;;;;;6.43;3.33;;;;;;;16.75;76.80;95326.44;4991072;28;20764;-76
2023/08/12 02:36:16;;;;;;;8.98;3.33;;;;;;;17.01;77.27;95364.97;4992773;28;20188;-76
2023/08/12 02:38:41;;;;;;;14.48;7.60;;;;;;;17.04;76.50;95369.00;4990553;28;20667;-76
2023/08/12 02:41:06;;;;;;;14.63;8.90;;;;;;;16.98;76.18;95368.91;4991625;28;20415;-76
2023/08/12 02:43:32;;;;;;;18.55;11.48;;;;;;;16.97;75.99;95369.94;4991468;28;20430;-76
2023/08/12 02:45:57;;;;;;;16.30;10.35;;;;;;;17.01;76.21;95366.81;4985685;28;20570;-76
2023/08/12 02:48:23;;;;;;;18.55;9.95;;;;;;;16.95;76.65;95361.38;4992601;28;20181;-76
2023/08/12 02:50:48;;;;;;;10.27;6.13;;;;;;;17.07;77.46;95379.97;4989648;28;20187;-77
2023/08/12 02:53:15;;;;;;;7.47;4.75;;;;;;;16.96;77.84;95365.66;4976633;28;20215;-77
2023/08/12 02:55:41;;;;;;;6.38;4.18;;;;;;;17.08;78.08;95378.13;4996796;28;20188;-76
2023/08/12 02:58:06;;;;;;;11.25;5.75;;;;;;;17.08;78.27;95380.78;4990922;28;20554;-76
2023/08/12 03:00:31;;;;;;;6.85;4.82;;;;;;;17.08;78.28;95375.44;4989604;28;20229;-76
2023/08/12 03:02:57;;;;;;;6.80;3.15;;;;;;;17.10;78.43;95373.38;4991873;28;20632;-76
2023/08/12 03:05:23;;;;;;;5.32;3.63;;;;;;;17.04;78.27;95380.44;4992680;28;20176;-76
2023/08/12 03:07:49;;;;;;;5.53;3.70;;;;;;;17.00;78.60;95379.31;4995087;28;20420;-76
2023/08/12 03:10:14;;;;;;;4.47;3.17;;;;;;;17.02;77.41;95382.53;4995659;28;20212;-76
2023/08/12 03:12:40;;;;;;;3.70;2.75;;;;;;;16.89;76.55;95378.28;4994400;28;20723;-76
2023/08/12 03:15:07;;;;;;;14.00;8.57;;;;;;;16.87;76.83;95385.69;4991709;28;20185;-77
2023/08/12 03:17:32;;;;;;;22.85;13.68;;;;;;;16.88;77.12;95386.50;4996433;28;20196;-76
2023/08/12 03:20:01;;;;;;;19.70;12.82;;;;;;;16.79;77.29;95372.78;4993579;28;20181;-76
2023/08/12 03:22:29;;;;;;;9.82;3.85;;;;;;;16.89;76.76;95393.44;4986996;28;20177;-76
2023/08/12 03:24:54;;;;;;;15.55;7.40;;;;;;;16.84;76.65;95388.84;4988479;28;20586;-76
2023/08/12 03:27:20;;;;;;;10.75;6.78;;;;;;;16.66;76.79;95365.09;4982581;28;20183;-76
2023/08/12 03:29:46;;;;;;;13.75;5.20;;;;;;;16.76;76.96;95383.09;4989792;28;20201;-76
2023/08/12 03:32:11;;;;;;;9.85;6.32;;;;;;;16.73;77.66;95381.72;4991396;28;20201;-73
2023/08/12 03:34:37;;;;;;;10.88;6.30;;;;;;;16.73;77.84;95392.34;4995811;28;20177;-75
2023/08/12 03:37:02;;;;;;;9.88;4.95;;;;;;;16.73;77.87;95392.34;4994329;28;20189;-76
2023/08/12 03:39:27;;;;;;;4.88;2.97;;;;;;;16.74;77.80;95398.47;4995659;28;20700;-75
2023/08/12 03:41:53;;;;;;;6.32;2.70;;;;;;;16.70;78.05;95390.16;4988811;28;20180;-75
2023/08/12 03:44:18;;;;;;;4.22;2.80;;;;;;;16.71;78.28;95397.09;4990721;28;20185;-75
2023/08/12 03:46:44;;;;;;;5.18;3.40;;;;;;;16.66;78.20;95389.00;4994817;28;20264;-76
2023/08/12 03:49:09;;;;;;;6.20;3.60;;;;;;;16.60;78.22;95388.06;4994010;28;20185;-76
2023/08/12 03:51:34;;;;;;;7.57;3.33;;;;;;;16.63;78.60;95397.44;4994012;28;20309;-76
2023/08/12 03:54:00;;;;;;;6.57;3.40;;;;;;;16.60;78.50;95389.94;4994080;28;20173;-76
2023/08/12 03:56:25;;;;;;;12.27;3.95;;;;;;;16.59;78.92;95390.97;4994012;28;20188;-75
2023/08/12 03:58:51;;;;;;;8.85;3.90;;;;;;;16.57;78.93;95393.06;4989523;28;20185;-76
2023/08/12 04:01:16;;;;;;;7.15;4.00;;;;;;;16.63;79.20;95393.97;4991653;28;20705;-75
2023/08/12 04:03:42;;;;;;;8.95;4.05;;;;;;;16.71;79.28;95396.28;4994556;28;20250;-75
2023/08/12 04:06:07;;;;;;;11.75;3.97;;;;;;;16.77;78.93;95396.16;4993427;28;20652;-75
2023/08/12 04:08:33;;;;;;;9.73;3.38;;;;;;;16.87;78.73;95398.19;4994942;28;20248;-75
2023/08/12 04:10:59;;;;;;;7.20;3.25;;;;;;;16.84;78.63;95370.22;4988953;28;20530;-76
2023/08/12 04:13:24;;;;;;;11.05;4.05;;;;;;;16.90;78.19;95363.97;4995017;28;20535;-76
2023/08/12 04:15:50;;;;;;;10.32;4.15;;;;;;;17.26;78.29;95400.00;4991694;28;20229;-76
2023/08/12 04:18:16;;;;;;;11.68;3.53;;;;;;;17.40;77.32;95397.84;4993564;28;20203;-76
2023/08/12 04:20:42;;;;;;;10.48;4.15;;;;;;;17.66;77.08;95404.44;4994625;28;20564;-76
2023/08/12 04:23:07;;;;;;;6.90;3.55;;;;;;;17.90;76.65;95418.44;4987145;28;20177;-76
2023/08/12 04:25:33;;;;;;;11.20;3.80;;;;;;;18.10;75.90;95394.75;4994976;28;20173;-76
2023/08/12 04:27:58;;;;;;;10.27;3.70;;;;;;;18.55;74.97;95415.13;4994636;28;20194;-76
2023/08/12 04:30:24;;;;;;;8.43;4.35;;;;;;;18.86;72.98;95411.81;4994534;28;20636;-76
2023/08/12 04:32:49;;;;;;;11.80;4.50;;;;;;;19.23;72.11;95411.97;4994599;28;20215;-76
2023/08/12 04:35:15;;;;;;;12.98;5.20;;;;;;;19.55;69.43;95417.38;4993866;28;20671;-76
2023/08/12 04:37:40;;;;;;;10.32;4.82;;;;;;;19.89;67.78;95423.31;4977063;28;20651;-76
2023/08/12 04:40:09;;;;;;;9.75;3.95;;;;;;;20.23;66.65;95410.47;4990580;28;20189;-76
2023/08/12 04:42:34;;;;;;;9.52;3.65;;;;;;;20.69;64.82;95423.06;4993682;28;20268;-76
2023/08/12 04:44:59;;;;;;;7.53;3.20;;;;;;;21.22;63.87;95425.75;4990920;28;20260;-76
2023/08/12 04:47:25;;;;;;;8.25;3.10;;;;;;;21.75;61.94;95419.16;4993353;28;20664;-76
2023/08/12 04:49:51;;;;;;;11.13;3.25;;;;;;;22.15;59.68;95419.19;4989677;28;20174;-77
2023/08/12 04:52:16;;;;;;;19.15;3.65;;;;;;;22.73;59.36;95424.22;4984234;28;20205;-77
2023/08/12 04:54:43;;;;;;;9.23;2.95;;;;;;;23.13;57.67;95404.47;4994245;28;20173;-77
2023/08/12 04:57:09;;;;;;;6.50;2.78;;;;;;;23.60;56.19;95409.38;4989979;28;20173;-77
2023/08/12 04:59:35;;;;;;;10.00;2.70;;;;;;;23.85;55.71;95417.25;4991944;28;20208;-77
2023/08/12 05:02:01;;;;;;;5.07;2.67;;;;;;;24.19;54.17;95409.19;4993200;28;20204;-78
2023/08/12 05:04:26;;;;;;;4.55;2.88;;;;;;;24.85;52.03;95424.69;4986505;28;20173;-77
2023/08/12 05:06:51;;;;;;;4.20;2.78;;;;;;;25.46;50.15;95418.59;4991460;28;20272;-77
2023/08/12 05:09:17;;;;;;;5.13;2.53;;;;;;;26.12;48.71;95423.81;4986384;28;20185;-77
2023/08/12 05:11:42;;;;;;;5.85;2.42;;;;;;;26.76;47.34;95432.22;4993793;28;20564;-77
2023/08/12 05:14:08;;;;;;;5.22;2.55;;;;;;;27.48;45.33;95427.03;4990775;28;20177;-77
2023/08/12 05:16:33;;;;;;;3.17;2.10;;;;;;;27.93;44.98;95428.75;4991557;28;20279;-77
2023/08/12 05:18:59;;;;;;;3.58;2.35;;;;;;;28.33;43.72;95434.31;4985864;28;20299;-77
2023/08/12 05:21:24;;;;;;;2.83;2.28;;;;;;;28.73;42.17;95438.69;4993544;28;20207;-77
2023/08/12 05:23:50;;;;;;;4.00;2.65;;;;;;;29.13;41.47;95425.19;4990782;28;20181;-77
2023/08/12 05:26:15;;;;;;;3.88;2.17;;;;;;;29.68;40.35;95438.28;4990584;28;20181;-77
2023/08/12 05:28:40;;;;;;;3.33;2.00;;;;;;;30.01;38.78;95440.25;4986334;28;20256;-78
2023/08/12 05:31:06;;;;;;;4.68;2.35;;;;;;;30.46;38.16;95441.81;4992773;28;20177;-78
2023/08/12 05:33:31;;;;;;;2.47;2.17;;;;;;;30.60;37.79;95448.72;4975853;28;20188;-79
2023/08/12 05:35:57;;;;;;;4.32;2.00;;;;;;;30.94;37.35;95445.09;4990561;28;20277;-79
2023/08/12 05:38:22;;;;;;;14.25;9.43;;;;;;;31.22;36.97;95456.38;4990690;28;20231;-75
2023/08/12 05:40:48;;;;;;;22.45;14.10;;;;;;;31.41;36.89;95440.41;4993204;28;20185;-77
2023/08/12 05:43:13;;;;;;;18.65;12.90;;;;;;;32.02;34.64;95453.66;4990995;28;20187;-78
2023/08/12 05:45:38;;;;;;;5.75;3.53;;;;;;;32.01;34.46;95452.88;4993281;28;20184;-77
2023/08/12 05:48:06;;;;;;;11.73;8.45;;;;;;;32.03;35.08;95456.06;4993237;28;20176;-76
2023/08/12 05:50:31;;;;;;;6.53;5.50;;;;;;;32.31;34.70;95445.44;4992979;28;20195;-76
2023/08/12 05:52:56;;;;;;;9.80;4.45;;;;;;;32.81;32.60;95442.56;4991682;28;20657;-76
2023/08/12 05:55:22;;;;;;;2.88;2.20;;;;;;;32.81;32.49;95422.66;4988802;28;20659;-77
2023/08/12 05:57:47;;;;;;;4.05;2.42;;;;;;;32.97;32.69;95446.22;4998898;28;20185;-77
2023/08/12 06:00:13;;;;;;;7.65;3.72;;;;;;;33.02;33.21;95442.50;4995127;28;20185;-77
2023/08/12 06:02:38;;;;;;;5.95;3.15;;;;;;;32.57;34.07;95443.28;4986416;28;20169;-77
2023/08/12 06:05:04;;;;;;;2.60;2.40;;;;;;;32.40;34.12;95431.72;4991664;28;20247;-76
2023/08/12 06:07:30;;;;;;;4.15;2.60;;;;;;;32.21;33.81;95426.78;4991883;28;20231;-76
2023/08/12 06:09:55;;;;;;;6.75;4.07;;;;;;;32.10;34.75;95433.72;4972987;28;20181;-76
2023/08/12 06:12:20;;;;;;;13.45;7.03;;;;;;;31.75;35.32;95433.19;4979479;28;20252;-76
2023/08/12 06:14:46;;;;;;;2.63;2.30;;;;;;;31.43;35.29;95429.19;4996219;28;20172;-76
2023/08/12 06:17:11;;;;;;;5.38;2.20;;;;;;;31.20;36.67;95425.16;4996854;28;20220;-76
2023/08/12 06:19:37;;;;;;;9.50;4.50;;;;;;;30.89;37.19;95423.50;4991552;28;20173;-77
2023/08/12 06:22:03;;;;;;;3.97;2.35;;;;;;;30.66;36.19;95417.50;4989055;28;20224;-77
2023/08/12 06:24:28;;;;;;;7.40;3.08;;;;;;;30.30;38.99;95419.78;4980692;28;20520;-77
2023/08/12 06:26:54;;;;;;;13.05;2.63;;;;;;;29.97;38.50;95411.34;4998386;28;20185;-76
2023/08/12 06:29:19;;;;;;;3.20;2.10;;;;;;;29.84;38.84;95425.84;4986467;28;20533;-76
2023/08/12 06:31:44;;;;;;;3.88;2.35;;;;;;;29.41;39.77;95412.19;4986120;28;20684;-76
2023/08/12 06:34:10;;;;;;;3.05;2.70;;;;;;;29.26;39.64;95411.50;4988183;28;20174;-76
2023/08/12 06:36:35;;;;;;;5.78;3.97;;;;;;;29.11;41.74;95405.72;4987054;28;20192;-76
2023/08/12 06:39:01;;;;;;;6.47;2.97;;;;;;;29.06;41.67;95411.31;4990273;28;20234;-78
2023/08/12 06:41:26;;;;;;;8.50;2.45;;;;;;;29.06;41.02;95401.22;4989079;28;20172;-78
2023/08/12 06:43:51;;;;;;;2.97;2.28;;;;;;;29.08;41.43;95403.63;4983448;28;20208;-77
2023/08/12 06:46:17;;;;;;;3.63;2.60;;;;;;;29.05;41.83;95402.38;4993995;28;20260;-78
2023/08/12 06:48:42;;;;;;;2.65;2.42;;;;;;;29.10;40.75;95398.69;4994592;28;20211;-77
2023/08/12 06:51:10;;;;;;;4.03;2.63;;;;;;;29.09;41.94;95394.38;4991888;28;20841;-78
2023/08/12 06:53:39;;;;;;;6.78;3.13;;;;;;;28.63;40.88;95395.59;4989422;28;20188;-76
2023/08/12 06:56:05;;;;;;;3.80;2.30;;;;;;;28.23;43.08;95392.03;4990864;28;20195;-77
2023/08/12 06:58:30;;;;;;;7.20;2.58;;;;;;;28.32;43.63;95384.75;4989977;28;20181;-76
2023/08/12 07:00:56;;;;;;;5.38;3.15;;;;;;;28.49;42.42;95400.31;4984314;28;20799;-77
2023/08/12 07:03:22;;;;;;;4.53;2.17;;;;;;;28.57;43.53;95394.16;4984175;28;20200;-75
2023/08/12 07:05:48;;;;;;;3.88;2.58;;;;;;;28.63;42.28;95392.88;4995267;28;20186;-77
2023/08/12 07:08:13;;;;;;;6.40;2.92;;;;;;;28.75;44.05;95384.19;4989634;28;20243;-77
2023/08/12 07:10:40;;;;;;;3.63;2.88;;;;;;;28.93;42.14;95390.50;4982859;28;20219;-77
2023/08/12 07:13:05;;;;;;;4.78;2.33;;;;;;;29.01;43.05;95393.25;4991099;28;20205;-78
2023/08/12 07:15:30;;;;;;;2.38;2.10;;;;;;;29.11;41.25;95398.38;4989157;28;20181;-77
2023/08/12 07:17:57;;;;;;;4.65;2.38;;;;;;;28.86;38.91;95336.75;4987124;28;20256;-76
2023/08/12 07:20:23;;;;;;;2.90;2.25;;;;;;;29.00;38.79;95390.84;4991208;28;20189;-76
2023/08/12 07:22:49;;;;;;;5.22;2.20;;;;;;;28.87;39.91;95389.84;4984437;28;20200;-76
2023/08/12 07:25:14;;;;;;;3.08;2.70;;;;;;;29.10;38.77;95396.78;4990395;28;20261;-76
2023/08/12 07:27:39;;;;;;;3.33;2.20;;;;;;;29.38;39.60;95389.22;4990756;28;20162;-76
2023/08/12 07:30:06;;;;;;;2.00;1.80;;;;;;;29.50;38.16;95386.69;4968814;28;20554;-76
2023/08/12 07:32:31;;;;;;;7.15;3.47;;;;;;;29.25;38.90;95388.19;4986712;28;20280;-76
2023/08/12 07:34:56;;;;;;;4.05;1.90;;;;;;;29.36;41.23;95387.94;4991346;28;20267;-76
2023/08/12 07:37:22;;;;;;;3.17;2.47;;;;;;;29.58;40.17;95385.88;4991558;28;20184;-76
2023/08/12 07:39:47;;;;;;;7.90;2.33;;;;;;;29.74;39.81;95388.94;4986141;28;20916;-77
2023/08/12 07:42:13;;;;;;;2.22;2.03;;;;;;;29.77;38.11;95376.63;4988906;28;20285;-76
2023/08/12 07:44:38;;;;;;;2.75;1.80;;;;;;;29.87;38.68;95379.03;4985508;28;20172;-77
2023/08/12 07:47:04;;;;;;;3.70;1.85;;;;;;;30.22;39.18;95385.25;4995346;28;20617;-77
2023/08/12 07:49:29;;;;;;;5.72;2.92;;;;;;;30.49;38.04;95381.38;4994082;28;20264;-77
2023/08/12 07:51:55;;;;;;;4.90;2.10;;;;;;;30.72;36.48;95393.63;4997476;28;20275;-73
2023/08/12 07:54:20;;;;;;;3.15;2.20;;;;;;;30.64;36.85;95380.88;4997386;28;20173;-73
2023/08/12 07:56:46;;;;;;;5.18;2.10;;;;;;;30.02;38.06;95354.91;4986385;28;20220;-74
2023/08/12 07:59:11;;;;;;;3.55;2.38;;;;;;;29.85;38.18;95364.97;4994010;28;20183;-74
2023/08/12 08:01:36;;;;;;;2.10;1.90;;;;;;;29.45;36.21;95370.56;4989428;28;20165;-74
2023/08/12 08:04:02;;;;;;;4.00;2.10;;;;;;;29.14;37.72;95364.41;4994231;28;20696;-74
2023/08/12 08:06:28;;;;;;;2.83;1.80;;;;;;;29.15;40.23;95366.00;4993700;28;20170;-74
2023/08/12 08:08:55;;;;;;;2.40;2.13;;;;;;;29.20;38.46;95344.97;4986353;28;20227;-74
2023/08/12 08:11:24;;;;;;;2.50;1.80;;;;;;;29.69;40.52;95364.66;4993810;28;20192;-74
2023/08/12 08:13:49;;;;;;;3.35;1.83;;;;;;;30.00;36.94;95372.69;4993571;28;20244;-74
2023/08/12 08:16:14;;;;;;;4.05;1.80;;;;;;;29.96;36.34;95352.69;4993565;28;20650;-74
2023/08/12 08:18:40;;;;;;;2.28;1.90;;;;;;;29.49;36.35;95363.38;4993750;28;20188;-74
2023/08/12 08:21:05;;;;;;;3.17;2.20;;;;;;;29.42;36.70;95357.63;4993621;28;20249;-74
2023/08/12 08:23:30;;;;;;;5.25;2.47;;;;;;;29.83;37.66;95359.09;4993729;28;20658;-74
2023/08/12 08:25:56;;;;;;;4.57;2.22;;;;;;;30.28;37.55;95356.78;4993517;28;20177;-74
2023/08/12 08:28:21;;;;;;;4.57;2.65;;;;;;;30.25;36.08;95366.41;4990659;28;20579;-74
2023/08/12 08:30:47;;;;;;;3.83;2.03;;;;;;;29.75;37.41;95347.09;4985684;28;20329;-75
2023/08/12 08:33:12;;;;;;;2.30;2.10;;;;;;;30.13;36.60;95349.97;4993395;28;20292;-75
2023/08/12 08:35:38;;;;;;;1.67;1.58;;;;;;;30.12;34.17;95351.06;4993421;28;20176;-75
2023/08/12 08:38:03;;;;;;;4.57;1.98;;;;;;;30.05;35.87;95358.13;4989403;28;20208;-74
2023/08/12 08:40:29;;;;;;;4.10;1.98;;;;;;;29.97;36.39;95348.88;4992854;28;20197;-74
2023/08/12 08:42:58;;;;;;;3.30;1.92;;;;;;;29.83;34.95;95345.50;4993200;28;20169;-74
2023/08/12 08:45:25;;;;;;;2.97;2.00;;;;;;;29.53;35.42;95341.81;4993057;28;20192;-74
2023/08/12 08:47:51;;;;;;;2.58;2.13;;;;;;;29.55;35.96;95343.13;4985082;28;20247;-74
2023/08/12 08:50:17;;;;;;;3.53;1.90;;;;;;;28.84;37.49;95336.25;4976470;28;20249;-74
2023/08/12 08:52:43;;;;;;;3.30;2.25;;;;;;;28.58;38.10;95340.75;4985700;28;20284;-73
2023/08/12 08:55:09;;;;;;;2.50;1.75;;;;;;;28.42;38.65;95324.91;4983595;28;20673;-74
2023/08/12 08:57:35;;;;;;;2.25;2.05;;;;;;;28.17;38.47;95336.41;4998181;28;20181;-73
2023/08/12 09:00:00;;;;;;;2.17;1.85;;;;;;;28.18;38.49;95334.50;4995371;28;20224;-73
2023/08/12 09:02:26;;;;;;;4.53;2.28;;;;;;;28.60;38.06;95342.03;4995028;28;20692;-72
2023/08/12 09:04:53;;;;;;;5.03;2.17;;;;;;;28.62;39.13;95328.97;4997460;28;20458;-72
2023/08/12 09:07:20;;;;;;;3.03;2.30;;;;;;;28.72;38.99;95279.09;4997727;28;20900;-72
2023/08/12 09:09:48;;;;;;;4.20;1.90;;;;;;;29.20;37.97;95319.75;4990665;28;20957;-72
2023/08/12 09:12:16;;;;;;;4.30;2.53;;;;;;;29.45;38.41;95332.56;4994906;28;20621;-74
2023/08/12 09:14:44;;;;;;;1.95;1.60;;;;;;;29.21;37.12;95327.56;4997618;28;20209;-73
2023/08/12 09:17:11;;;;;;;1.80;1.60;;;;;;;28.81;36.95;95321.41;4992328;28;20236;-73
2023/08/12 09:19:37;;;;;;;2.72;2.10;;;;;;;28.97;38.96;95312.84;4990129;28;20699;-73
2023/08/12 09:22:09;;;;;;;3.03;1.73;;;;;;;28.78;36.78;95308.50;4992374;28;20244;-73
2023/08/12 09:24:34;;;;;;;2.58;2.20;;;;;;;28.46;37.15;95311.50;4993547;28;20598;-73
2023/08/12 09:27:00;;;;;;;6.55;2.30;;;;;;;28.36;38.68;95298.28;4996317;28;20232;-73
2023/08/12 09:29:35;;;;;;;6.00;2.17;;;;;;;28.41;39.42;95306.25;4992518;28;20188;-73
2023/08/12 09:32:12;;;;;;;7.47;2.85;;;;;;;28.29;38.23;95301.41;4991909;28;20189;-73
2023/08/12 09:34:46;;;;;;;5.80;2.28;;;;;;;28.14;40.58;95304.50;4992246;28;20169;-73
2023/08/12 09:37:13;;;;;;;7.32;3.33;;;;;;;28.55;39.28;95298.81;4980720;28;20164;-73
2023/08/12 09:39:38;;;;;;;5.95;2.95;;;;;;;28.48;38.53;95298.47;4992039;28;20188;-74
2023/08/12 09:42:04;;;;;;;2.83;1.90;;;;;;;28.47;39.07;95291.44;4993704;28;20176;-72
2023/08/12 09:44:30;;;;;;;3.42;2.10;;;;;;;28.25;37.54;95283.41;4987209;28;20174;-73
2023/08/12 09:46:58;;;;;;;4.80;2.10;;;;;;;28.34;38.42;95292.34;4983591;28;20165;-73
2023/08/12 09:49:24;;;;;;;2.13;1.90;;;;;;;27.97;38.63;95286.25;5006757;28;20758;-73
2023/08/12 09:51:51;;;;;;;3.53;2.28;;;;;;;27.82;39.32;95289.34;5008675;28;20216;-73
2023/08/12 09:54:18;;;;;;;3.97;2.00;;;;;;;27.72;40.52;95281.47;4992007;28;20519;-73
2023/08/12 09:56:52;;;;;;;1.50;1.40;;;;;;;27.87;38.65;95272.16;4991357;28;20187;-73
2023/08/12 09:59:22;;;;;;;2.97;2.17;;;;;;;27.76;39.70;95280.53;4991309;28;20592;-74
2023/08/12 10:01:50;;;;;;;4.47;2.63;;;;;;;27.87;39.30;95283.00;5002485;28;20188;-73
2023/08/12 10:04:18;;;;;;;3.05;2.00;;;;;;;27.87;38.35;95264.84;5000405;28;20619;-73
2023/08/12 10:06:44;;;;;;;5.65;2.15;;;;;;;28.02;40.81;95269.84;4980599;28;20566;-74
2023/08/12 10:09:11;;;;;;;4.13;2.40;;;;;;;28.24;41.00;95268.25;4975728;28;20179;-73
2023/08/12 10:11:36;;;;;;;2.25;2.05;;;;;;;28.47;39.87;95261.63;4993538;28;20220;-74
2023/08/12 10:14:04;;;;;;;3.88;1.73;;;;;;;28.38;38.26;95239.13;4978695;28;20220;-74
2023/08/12 10:16:30;;;;;;;2.13;1.92;;;;;;;28.53;37.39;95266.63;4997714;28;20316;-74
2023/08/12 10:18:57;;;;;;;2.67;1.73;;;;;;;28.44;36.72;95254.97;4994072;28;20256;-73
2023/08/12 10:21:24;;;;;;;2.63;2.22;;;;;;;28.50;37.67;95258.31;4996837;28;20264;-74
2023/08/12 10:23:50;;;;;;;2.25;1.90;;;;;;;28.52;38.81;95256.09;5003735;28;20647;-75
2023/08/12 10:26:17;;;;;;;3.33;1.75;;;;;;;28.58;37.20;95249.41;4997567;28;20180;-74
2023/08/12 10:28:43;;;;;;;2.72;2.10;;;;;;;28.60;37.04;95259.94;4994998;28;20209;-75
2023/08/12 10:31:11;;;;;;;3.33;2.30;;;;;;;28.45;37.30;95255.75;4992839;28;20185;-74
2023/08/12 10:33:38;;;;;;;3.22;2.05;;;;;;;28.07;37.18;95252.69;4989989;28;20263;-74
2023/08/12 10:36:04;;;;;;;5.72;2.05;;;;;;;27.81;37.53;95249.84;4984410;28;20184;-74
2023/08/12 10:38:29;;;;;;;4.47;1.95;;;;;;;27.64;38.15;95241.63;4991213;28;20257;-73
2023/08/12 10:41:17;;;;;;;8.25;2.30;;;;;;;27.55;38.58;95238.88;4986167;28;20243;-72
2023/08/12 10:43:58;;;;;;;2.20;1.85;;;;;;;27.48;37.99;95230.34;4982978;28;20212;-73
2023/08/12 10:46:33;;;;;;;2.30;1.90;;;;;;;27.56;38.02;95239.66;4984586;28;20699;-74
2023/08/12 10:49:00;;;;;;;1.60;1.48;;;;;;;27.57;40.15;95235.84;4987836;28;20195;-73
2023/08/12 10:51:45;;;;;;;2.20;1.98;;;;;;;27.63;40.92;95223.78;4997144;28;20724;-76
2023/08/12 10:54:18;;;;;;;4.97;1.95;;;;;;;27.82;38.75;95224.38;4972745;28;20212;-75
2023/08/12 10:57:05;;;;;;;1.67;1.58;;;;;;;27.88;37.35;95222.34;4990533;28;20207;-74
2023/08/12 10:59:45;;;;;;;1.50;1.40;;;;;;;27.56;37.42;95221.53;4993156;28;20215;-74
2023/08/12 11:02:19;;;;;;;2.75;1.80;;;;;;;27.66;38.61;95220.47;4990586;28;20177;-74
2023/08/12 11:04:57;;;;;;;4.93;1.88;;;;;;;27.69;37.15;95225.25;4983227;28;20231;-74
2023/08/12 11:07:32;;;;;;;2.33;1.83;;;;;;;27.60;37.37;95227.91;4990735;28;20189;-74
2023/08/12 11:10:05;;;;;;;1.92;1.73;;;;;;;27.51;35.70;95204.56;4991848;28;20180;-74
2023/08/12 11:12:33;;;;;;;2.13;1.92;;;;;;;27.65;37.52;95213.47;4990693;28;20676;-74
2023/08/12 11:15:04;;;;;;;1.98;1.40;;;;;;;27.71;36.22;95220.34;4993732;28;20208;-74
2023/08/12 11:17:37;;;;;;;3.30;1.88;;;;;;;27.48;37.57;95206.00;4994406;28;20248;-73
2023/08/12 11:20:06;;;;;;;2.17;1.77;;;;;;;27.58;37.58;95199.59;4994336;28;20189;-74
2023/08/12 11:22:34;;;;;;;2.10;1.90;;;;;;;27.25;37.32;95202.50;4988492;28;20594;-73
2023/08/12 11:25:01;;;;;;;3.10;1.65;;;;;;;27.26;38.35;95192.47;4995356;28;20169;-74
2023/08/12 11:27:26;;;;;;;1.70;1.60;;;;;;;27.42;38.94;95196.41;5001786;28;20263;-74
2023/08/12 11:29:52;;;;;;;2.10;1.35;;;;;;;27.45;38.22;95184.19;4992215;28;20629;-74